sensor_id;sensor_type;location;lat;lon;timestamp;pressure;altitude;pressure_sealevel;temperature;humidity
65760;BME280;52496;51.082;5.066;2023-04-20T00:01:45;102043.91;;;7.85;49.64
65760;BME280;52496;51.082;5.066;2023-04-20T00:04:16;102045.03;;;7.82;49.66
65760;BME280;52496;51.082;5.066;2023-04-20T00:06:47;102037.59;;;7.76;49.99
65760;BME280;52496;51.082;5.066;2023-04-20T00:09:18;102031.66;;;7.73;50.01
65760;BME280;52496;51.082;5.066;2023-04-20T00:11:49;102037.41;;;7.68;49.90
65760;BME280;52496;51.082;5.066;2023-04-20T00:14:20;102036.69;;;7.66;49.60
65760;BME280;52496;51.082;5.066;2023-04-20T00:16:50;102039.38;;;7.66;49.86
65760;BME280;52496;51.082;5.066;2023-04-20T00:19:21;102032.38;;;7.65;49.71
65760;BME280;52496;51.082;5.066;2023-04-20T00:21:52;102034.31;;;7.63;50.10
65760;BME280;52496;51.082;5.066;2023-04-20T00:24:23;102034.31;;;7.63;49.66
65760;BME280;52496;51.082;5.066;2023-04-20T00:26:53;102019.44;;;7.61;49.84
65760;BME280;52496;51.082;5.066;2023-04-20T00:29:24;102022.25;;;7.59;49.65
65760;BME280;52496;51.082;5.066;2023-04-20T00:31:55;102012.88;;;7.55;49.70
65760;BME280;52496;51.082;5.066;2023-04-20T00:34:25;102019.44;;;7.51;50.02
65760;BME280;52496;51.082;5.066;2023-04-20T00:36:56;102004.00;;;7.45;50.23
65760;BME280;52496;51.082;5.066;2023-04-20T00:39:27;102006.38;;;7.38;50.35
65760;BME280;52496;51.082;5.066;2023-04-20T00:42:07;102004.13;;;7.33;50.09
65760;BME280;52496;51.082;5.066;2023-04-20T00:44:38;102001.72;;;7.30;49.96
65760;BME280;52496;51.082;5.066;2023-04-20T00:47:08;102008.00;;;7.29;49.99
65760;BME280;52496;51.082;5.066;2023-04-20T00:49:39;102017.97;;;7.27;50.04
65760;BME280;52496;51.082;5.066;2023-04-20T00:52:11;102004.78;;;7.26;49.83
65760;BME280;52496;51.082;5.066;2023-04-20T00:54:41;102005.88;;;7.23;49.77
65760;BME280;52496;51.082;5.066;2023-04-20T00:57:13;101995.50;;;7.20;50.04
65760;BME280;52496;51.082;5.066;2023-04-20T00:59:43;101993.97;;;7.18;49.79
65760;BME280;52496;51.082;5.066;2023-04-20T01:02:14;101984.56;;;7.13;49.89
65760;BME280;52496;51.082;5.066;2023-04-20T01:04:46;101988.06;;;7.14;49.51
65760;BME280;52496;51.082;5.066;2023-04-20T01:07:16;101976.13;;;7.08;50.00
65760;BME280;52496;51.082;5.066;2023-04-20T01:09:47;101986.94;;;7.07;50.05
65760;BME280;52496;51.082;5.066;2023-04-20T01:12:17;101980.06;;;7.04;49.78
65760;BME280;52496;51.082;5.066;2023-04-20T01:14:48;101984.53;;;7.04;50.34
65760;BME280;52496;51.082;5.066;2023-04-20T01:17:19;101987.19;;;7.04;49.92
65760;BME280;52496;51.082;5.066;2023-04-20T01:19:50;101973.91;;;7.04;49.85
65760;BME280;52496;51.082;5.066;2023-04-20T01:22:20;101967.84;;;7.02;49.69
65760;BME280;52496;51.082;5.066;2023-04-20T01:24:51;101963.53;;;7.01;49.80
65760;BME280;52496;51.082;5.066;2023-04-20T01:27:22;101964.47;;;7.00;49.51
65760;BME280;52496;51.082;5.066;2023-04-20T01:29:52;101957.47;;;6.99;49.32
65760;BME280;52496;51.082;5.066;2023-04-20T01:32:23;101949.50;;;6.99;49.91
65760;BME280;52496;51.082;5.066;2023-04-20T01:34:56;101953.16;;;6.98;49.56
65760;BME280;52496;51.082;5.066;2023-04-20T01:37:27;101950.03;;;6.93;50.08
65760;BME280;52496;51.082;5.066;2023-04-20T01:40:01;101953.69;;;6.92;49.85
65760;BME280;52496;51.082;5.066;2023-04-20T01:42:31;101944.28;;;6.87;49.80
65760;BME280;52496;51.082;5.066;2023-04-20T01:45:07;101934.88;;;6.83;50.25
65760;BME280;52496;51.082;5.066;2023-04-20T01:47:37;101937.09;;;6.78;50.80
65760;BME280;52496;51.082;5.066;2023-04-20T01:50:08;101930.63;;;6.71;50.61
65760;BME280;52496;51.082;5.066;2023-04-20T01:52:39;101927.50;;;6.66;51.13
65760;BME280;52496;51.082;5.066;2023-04-20T01:55:09;101932.53;;;6.59;51.60
65760;BME280;52496;51.082;5.066;2023-04-20T01:57:40;101926.91;;;6.53;51.30
65760;BME280;52496;51.082;5.066;2023-04-20T02:00:12;101916.78;;;6.47;51.88
65760;BME280;52496;51.082;5.066;2023-04-20T02:02:42;101919.00;;;6.41;52.26
65760;BME280;52496;51.082;5.066;2023-04-20T02:05:13;101923.88;;;6.36;51.28
65760;BME280;52496;51.082;5.066;2023-04-20T02:07:43;101930.13;;;6.35;51.90
65760;BME280;52496;51.082;5.066;2023-04-20T02:10:14;101921.47;;;6.33;51.84
65760;BME280;52496;51.082;5.066;2023-04-20T02:12:45;101927.06;;;6.30;52.15
65760;BME280;52496;51.082;5.066;2023-04-20T02:15:15;101911.63;;;6.24;52.21
65760;BME280;52496;51.082;5.066;2023-04-20T02:17:46;101914.56;;;6.21;52.18
65760;BME280;52496;51.082;5.066;2023-04-20T02:20:21;101913.00;;;6.18;52.06
65760;BME280;52496;51.082;5.066;2023-04-20T02:22:52;101899.81;;;6.17;51.95
65760;BME280;52496;51.082;5.066;2023-04-20T02:25:22;101905.13;;;6.17;51.86
65760;BME280;52496;51.082;5.066;2023-04-20T02:27:53;101898.97;;;6.16;52.34
65760;BME280;52496;51.082;5.066;2023-04-20T02:30:23;101895.50;;;6.16;52.07
65760;BME280;52496;51.082;5.066;2023-04-20T02:32:54;101888.38;;;6.16;52.04
65760;BME280;52496;51.082;5.066;2023-04-20T02:35:25;101895.59;;;6.14;52.56
65760;BME280;52496;51.082;5.066;2023-04-20T02:37:55;101884.41;;;6.11;52.06
65760;BME280;52496;51.082;5.066;2023-04-20T02:40:26;101888.03;;;6.10;51.83
65760;BME280;52496;51.082;5.066;2023-04-20T02:42:56;101878.41;;;6.09;52.30
65760;BME280;52496;51.082;5.066;2023-04-20T02:45:27;101877.69;;;6.07;52.46
65760;BME280;52496;51.082;5.066;2023-04-20T02:47:58;101882.16;;;6.06;52.67
65760;BME280;52496;51.082;5.066;2023-04-20T02:50:29;101879.63;;;6.05;52.51
65760;BME280;52496;51.082;5.066;2023-04-20T02:52:59;101876.53;;;6.00;53.39
65760;BME280;52496;51.082;5.066;2023-04-20T02:55:30;101872.41;;;5.95;53.97
65760;BME280;52496;51.082;5.066;2023-04-20T02:58:02;101872.78;;;5.91;53.33
65760;BME280;52496;51.082;5.066;2023-04-20T03:00:32;101875.56;;;5.89;53.54
65760;BME280;52496;51.082;5.066;2023-04-20T03:03:03;101868.31;;;5.91;53.34
65760;BME280;52496;51.082;5.066;2023-04-20T03:05:33;101874.25;;;5.95;53.48
65760;BME280;52496;51.082;5.066;2023-04-20T03:08:04;101871.22;;;6.00;53.34
65760;BME280;52496;51.082;5.066;2023-04-20T03:10:36;101868.16;;;6.04;53.65
65760;BME280;52496;51.082;5.066;2023-04-20T03:13:07;101862.47;;;6.09;53.49
65760;BME280;52496;51.082;5.066;2023-04-20T03:15:37;101863.16;;;6.11;53.96
65760;BME280;52496;51.082;5.066;2023-04-20T03:18:08;101861.22;;;6.13;54.02
65760;BME280;52496;51.082;5.066;2023-04-20T03:20:38;101849.03;;;6.10;54.29
65760;BME280;52496;51.082;5.066;2023-04-20T03:23:09;101844.84;;;6.08;54.11
65760;BME280;52496;51.082;5.066;2023-04-20T03:25:40;101844.41;;;6.03;54.37
65760;BME280;52496;51.082;5.066;2023-04-20T03:28:11;101843.09;;;5.97;54.06
65760;BME280;52496;51.082;5.066;2023-04-20T03:30:43;101841.53;;;5.94;54.92
65760;BME280;52496;51.082;5.066;2023-04-20T03:33:13;101833.09;;;5.89;54.92
65760;BME280;52496;51.082;5.066;2023-04-20T03:35:44;101825.25;;;5.88;54.80
65760;BME280;52496;51.082;5.066;2023-04-20T03:38:15;101815.59;;;5.87;55.33
65760;BME280;52496;51.082;5.066;2023-04-20T03:40:46;101815.75;;;5.85;55.71
65760;BME280;52496;51.082;5.066;2023-04-20T03:43:16;101809.72;;;5.83;55.98
65760;BME280;52496;51.082;5.066;2023-04-20T03:45:47;101804.41;;;5.83;55.63
65760;BME280;52496;51.082;5.066;2023-04-20T03:48:18;101803.03;;;5.89;55.76
65760;BME280;52496;51.082;5.066;2023-04-20T03:50:49;101797.38;;;5.93;56.07
65760;BME280;52496;51.082;5.066;2023-04-20T03:53:19;101792.50;;;5.98;56.55
65760;BME280;52496;51.082;5.066;2023-04-20T03:55:50;101795.72;;;6.02;56.41
65760;BME280;52496;51.082;5.066;2023-04-20T03:58:20;101799.69;;;6.08;56.56
65760;BME280;52496;51.082;5.066;2023-04-20T04:00:51;101789.78;;;6.10;56.50
65760;BME280;52496;51.082;5.066;2023-04-20T04:03:21;101794.94;;;6.11;56.89
65760;BME280;52496;51.082;5.066;2023-04-20T04:05:52;101792.16;;;6.13;57.11
65760;BME280;52496;51.082;5.066;2023-04-20T04:08:23;101783.22;;;6.14;57.12
65760;BME280;52496;51.082;5.066;2023-04-20T04:10:54;101778.63;;;6.16;57.66
65760;BME280;52496;51.082;5.066;2023-04-20T04:13:24;101776.69;;;6.18;57.87
65760;BME280;52496;51.082;5.066;2023-04-20T04:15:55;101782.69;;;6.20;58.13
65760;BME280;52496;51.082;5.066;2023-04-20T04:18:25;101786.06;;;6.22;58.77
65760;BME280;52496;51.082;5.066;2023-04-20T04:21:01;101785.81;;;6.25;59.28
65760;BME280;52496;51.082;5.066;2023-04-20T04:23:32;101779.38;;;6.28;58.96
65760;BME280;52496;51.082;5.066;2023-04-20T04:26:02;101772.97;;;6.30;59.29
65760;BME280;52496;51.082;5.066;2023-04-20T04:28:34;101767.38;;;6.33;59.30
65760;BME280;52496;51.082;5.066;2023-04-20T04:31:06;101773.28;;;6.37;59.95
65760;BME280;52496;51.082;5.066;2023-04-20T04:33:36;101761.66;;;6.38;59.42
65760;BME280;52496;51.082;5.066;2023-04-20T04:36:07;101763.22;;;6.40;59.86
65760;BME280;52496;51.082;5.066;2023-04-20T04:38:38;101765.59;;;6.43;59.84
65760;BME280;52496;51.082;5.066;2023-04-20T04:41:09;101750.38;;;6.46;60.03
65760;BME280;52496;51.082;5.066;2023-04-20T04:43:41;101750.09;;;6.49;60.26
65760;BME280;52496;51.082;5.066;2023-04-20T04:46:13;101746.19;;;6.53;60.86
65760;BME280;52496;51.082;5.066;2023-04-20T04:48:44;101748.56;;;6.56;61.04
65760;BME280;52496;51.082;5.066;2023-04-20T04:51:15;101748.28;;;6.59;61.33
65760;BME280;52496;51.082;5.066;2023-04-20T04:53:46;101752.34;;;6.63;61.60
65760;BME280;52496;51.082;5.066;2023-04-20T04:56:19;101736.13;;;6.66;61.83
65760;BME280;52496;51.082;5.066;2023-04-20T04:58:50;101728.75;;;6.70;62.06
65760;BME280;52496;51.082;5.066;2023-04-20T05:01:21;101722.16;;;6.74;62.54
65760;BME280;52496;51.082;5.066;2023-04-20T05:03:52;101715.47;;;6.79;62.35
65760;BME280;52496;51.082;5.066;2023-04-20T05:06:22;101707.34;;;6.81;62.96
65760;BME280;52496;51.082;5.066;2023-04-20T05:08:53;101707.91;;;6.84;62.59
65760;BME280;52496;51.082;5.066;2023-04-20T05:11:24;101712.94;;;6.87;62.90
65760;BME280;52496;51.082;5.066;2023-04-20T05:13:54;101715.31;;;6.90;63.20
65760;BME280;52496;51.082;5.066;2023-04-20T05:16:25;101712.38;;;6.94;63.11
65760;BME280;52496;51.082;5.066;2023-04-20T05:18:55;101718.28;;;6.97;63.07
65760;BME280;52496;51.082;5.066;2023-04-20T05:21:26;101724.28;;;6.99;63.12
65760;BME280;52496;51.082;5.066;2023-04-20T05:23:57;101734.78;;;7.01;63.58
65760;BME280;52496;51.082;5.066;2023-04-20T05:26:28;101730.16;;;7.03;63.79
65760;BME280;52496;51.082;5.066;2023-04-20T05:28:58;101730.88;;;7.05;63.77
65760;BME280;52496;51.082;5.066;2023-04-20T05:31:29;101720.94;;;7.07;64.15
65760;BME280;52496;51.082;5.066;2023-04-20T05:34:02;101720.78;;;7.08;64.55
65760;BME280;52496;51.082;5.066;2023-04-20T05:36:33;101719.66;;;7.11;64.42
65760;BME280;52496;51.082;5.066;2023-04-20T05:39:03;101730.03;;;7.14;65.29
65760;BME280;52496;51.082;5.066;2023-04-20T05:41:35;101730.84;;;7.15;65.21
65760;BME280;52496;51.082;5.066;2023-04-20T05:44:05;101719.09;;;7.17;65.65
65760;BME280;52496;51.082;5.066;2023-04-20T05:46:36;101735.78;;;7.19;66.08
65760;BME280;52496;51.082;5.066;2023-04-20T05:49:06;101738.16;;;7.22;66.45
65760;BME280;52496;51.082;5.066;2023-04-20T05:51:37;101737.88;;;7.25;66.97
65760;BME280;52496;51.082;5.066;2023-04-20T05:54:07;101749.22;;;7.27;67.45
65760;BME280;52496;51.082;5.066;2023-04-20T05:56:39;101748.34;;;7.27;67.79
65760;BME280;52496;51.082;5.066;2023-04-20T05:59:10;101757.06;;;7.29;69.55
65760;BME280;52496;51.082;5.066;2023-04-20T06:01:40;101750.91;;;7.28;70.38
65760;BME280;52496;51.082;5.066;2023-04-20T06:04:11;101755.50;;;7.26;71.94
65760;BME280;52496;51.082;5.066;2023-04-20T06:06:41;101755.09;;;7.21;73.95
65760;BME280;52496;51.082;5.066;2023-04-20T06:09:12;101758.03;;;7.18;76.27
65760;BME280;52496;51.082;5.066;2023-04-20T06:11:43;101752.28;;;7.13;78.48
65760;BME280;52496;51.082;5.066;2023-04-20T06:14:14;101755.78;;;7.04;79.27
65760;BME280;52496;51.082;5.066;2023-04-20T06:16:45;101760.56;;;7.00;80.06
65760;BME280;52496;51.082;5.066;2023-04-20T06:19:15;101750.75;;;6.91;82.96
65760;BME280;52496;51.082;5.066;2023-04-20T06:21:46;101743.16;;;6.86;82.07
65760;BME280;52496;51.082;5.066;2023-04-20T06:24:16;101734.19;;;6.87;84.21
65760;BME280;52496;51.082;5.066;2023-04-20T06:26:47;101734.78;;;6.91;84.24
65760;BME280;52496;51.082;5.066;2023-04-20T06:29:17;101740.94;;;6.92;83.57
65760;BME280;52496;51.082;5.066;2023-04-20T06:31:48;101737.28;;;6.93;84.46
65760;BME280;52496;51.082;5.066;2023-04-20T06:41:34;101719.13;;;6.98;84.94
65760;BME280;52496;51.082;5.066;2023-04-20T06:44:05;101729.19;;;7.04;87.01
65760;BME280;52496;51.082;5.066;2023-04-20T06:46:35;101721.06;;;7.05;84.63
65760;BME280;52496;51.082;5.066;2023-04-20T06:49:06;101715.63;;;7.07;86.08
65760;BME280;52496;51.082;5.066;2023-04-20T06:51:37;101715.47;;;7.08;84.18
65760;BME280;52496;51.082;5.066;2023-04-20T06:54:08;101717.00;;;7.11;84.64
65760;BME280;52496;51.082;5.066;2023-04-20T06:56:40;101708.03;;;7.12;84.29
65760;BME280;52496;51.082;5.066;2023-04-20T06:59:10;101714.91;;;7.15;84.10
65760;BME280;52496;51.082;5.066;2023-04-20T07:01:41;101704.81;;;7.18;84.66
65760;BME280;52496;51.082;5.066;2023-04-20T07:04:11;101705.78;;;7.27;84.75
65760;BME280;52496;51.082;5.066;2023-04-20T07:06:42;101704.53;;;7.31;83.19
65760;BME280;52496;51.082;5.066;2023-04-20T07:09:12;101698.09;;;7.33;83.38
65760;BME280;52496;51.082;5.066;2023-04-20T07:11:43;101689.69;;;7.38;84.96
65760;BME280;52496;51.082;5.066;2023-04-20T07:14:13;101697.94;;;7.45;83.69
65760;BME280;52496;51.082;5.066;2023-04-20T07:16:43;101688.53;;;7.50;83.32
65760;BME280;52496;51.082;5.066;2023-04-20T07:19:15;101704.38;;;7.52;82.40
65760;BME280;52496;51.082;5.066;2023-04-20T07:21:46;101686.56;;;7.52;82.80
65760;BME280;52496;51.082;5.066;2023-04-20T07:24:16;101696.94;;;7.55;82.35
65760;BME280;52496;51.082;5.066;2023-04-20T07:26:47;101702.09;;;7.57;82.07
65760;BME280;52496;51.082;5.066;2023-04-20T07:29:17;101693.81;;;7.60;81.62
65760;BME280;52496;51.082;5.066;2023-04-20T07:31:48;101693.53;;;7.63;81.68
65760;BME280;52496;51.082;5.066;2023-04-20T07:34:18;101692.97;;;7.69;82.58
65760;BME280;52496;51.082;5.066;2023-04-20T07:36:49;101685.38;;;7.74;81.80
65760;BME280;52496;51.082;5.066;2023-04-20T07:39:21;101692.09;;;7.78;81.86
65760;BME280;52496;51.082;5.066;2023-04-20T07:41:54;101682.84;;;7.82;81.77
65760;BME280;52496;51.082;5.066;2023-04-20T07:44:26;101689.25;;;7.90;81.81
65760;BME280;52496;51.082;5.066;2023-04-20T07:46:57;101683.88;;;7.99;81.17
65760;BME280;52496;51.082;5.066;2023-04-20T07:49:27;101676.72;;;8.10;80.65
65760;BME280;52496;51.082;5.066;2023-04-20T07:51:58;101677.63;;;8.18;80.21
65760;BME280;52496;51.082;5.066;2023-04-20T07:54:31;101681.94;;;8.29;79.66
65760;BME280;52496;51.082;5.066;2023-04-20T07:57:02;101674.72;;;8.39;79.02
65760;BME280;52496;51.082;5.066;2023-04-20T07:59:32;101672.56;;;8.53;78.00
65760;BME280;52496;51.082;5.066;2023-04-20T08:02:05;101674.56;;;8.68;77.81
65760;BME280;52496;51.082;5.066;2023-04-20T08:04:36;101674.38;;;8.88;77.49
65760;BME280;52496;51.082;5.066;2023-04-20T08:07:07;101669.66;;;9.00;75.92
65760;BME280;52496;51.082;5.066;2023-04-20T08:09:38;101670.25;;;9.11;75.21
65760;BME280;52496;51.082;5.066;2023-04-20T08:12:08;101659.81;;;9.18;74.65
65760;BME280;52496;51.082;5.066;2023-04-20T08:14:39;101659.50;;;9.21;75.44
65760;BME280;52496;51.082;5.066;2023-04-20T08:17:10;101665.66;;;9.22;72.80
65760;BME280;52496;51.082;5.066;2023-04-20T08:19:40;101664.63;;;9.14;72.84
65760;BME280;52496;51.082;5.066;2023-04-20T08:22:11;101659.28;;;9.14;72.48
65760;BME280;52496;51.082;5.066;2023-04-20T08:24:41;101655.09;;;9.12;72.60
65760;BME280;52496;51.082;5.066;2023-04-20T08:27:12;101659.13;;;9.16;72.56
65760;BME280;52496;51.082;5.066;2023-04-20T08:29:42;101658.13;;;9.17;72.21
65760;BME280;52496;51.082;5.066;2023-04-20T08:32:13;101650.97;;;9.17;72.29
65760;BME280;52496;51.082;5.066;2023-04-20T08:34:44;101636.78;;;9.17;72.05
65760;BME280;52496;51.082;5.066;2023-04-20T08:37:15;101657.00;;;9.19;71.85
65760;BME280;52496;51.082;5.066;2023-04-20T08:39:45;101656.75;;;9.13;71.58
65760;BME280;52496;51.082;5.066;2023-04-20T08:42:16;101647.78;;;9.14;72.34
65760;BME280;52496;51.082;5.066;2023-04-20T08:44:47;101631.53;;;9.25;71.53
65760;BME280;52496;51.082;5.066;2023-04-20T08:47:19;101644.75;;;9.35;71.74
65760;BME280;52496;51.082;5.066;2023-04-20T08:49:51;101643.50;;;9.47;71.42
65760;BME280;52496;51.082;5.066;2023-04-20T08:52:22;101635.50;;;9.55;70.41
65760;BME280;52496;51.082;5.066;2023-04-20T08:54:53;101638.28;;;9.72;69.97
65760;BME280;52496;51.082;5.066;2023-04-20T08:57:24;101636.41;;;9.98;69.69
65760;BME280;52496;51.082;5.066;2023-04-20T08:59:55;101629.53;;;10.30;68.50
65760;BME280;52496;51.082;5.066;2023-04-20T09:02:26;101625.25;;;10.53;67.04
65760;BME280;52496;51.082;5.066;2023-04-20T09:05:04;101617.19;;;10.62;66.85
65760;BME280;52496;51.082;5.066;2023-04-20T09:07:35;101616.56;;;10.60;66.26
65760;BME280;52496;51.082;5.066;2023-04-20T09:10:05;101617.22;;;10.53;66.10
65760;BME280;52496;51.082;5.066;2023-04-20T09:12:41;101624.72;;;10.50;66.74
65760;BME280;52496;51.082;5.066;2023-04-20T09:15:23;101630.56;;;10.45;66.44
65760;BME280;52496;51.082;5.066;2023-04-20T09:17:54;101621.00;;;10.34;66.94
65760;BME280;52496;51.082;5.066;2023-04-20T09:20:31;101620.28;;;10.24;66.59
65760;BME280;52496;51.082;5.066;2023-04-20T09:23:15;101619.78;;;10.21;67.26
65760;BME280;52496;51.082;5.066;2023-04-20T09:25:50;101622.81;;;10.26;67.88
65760;BME280;52496;51.082;5.066;2023-04-20T09:28:22;101617.84;;;10.39;67.87
65760;BME280;52496;51.082;5.066;2023-04-20T09:30:52;101611.84;;;10.62;67.39
65760;BME280;52496;51.082;5.066;2023-04-20T09:33:29;101618.91;;;10.87;67.74
65760;BME280;52496;51.082;5.066;2023-04-20T09:36:03;101625.94;;;10.96;66.47
65760;BME280;52496;51.082;5.066;2023-04-20T09:38:34;101614.53;;;10.86;65.32
65760;BME280;52496;51.082;5.066;2023-04-20T09:41:05;101615.06;;;10.65;66.15
65760;BME280;52496;51.082;5.066;2023-04-20T09:43:36;101612.38;;;10.65;67.24
65760;BME280;52496;51.082;5.066;2023-04-20T09:46:07;101606.69;;;10.68;67.11
65760;BME280;52496;51.082;5.066;2023-04-20T09:48:38;101616.06;;;10.56;66.00
65760;BME280;52496;51.082;5.066;2023-04-20T09:51:09;101605.16;;;10.41;66.68
65760;BME280;52496;51.082;5.066;2023-04-20T09:53:40;101620.81;;;10.28;66.92
65760;BME280;52496;51.082;5.066;2023-04-20T09:56:11;101606.19;;;10.06;67.51
65760;BME280;52496;51.082;5.066;2023-04-20T09:58:44;101613.03;;;10.00;68.09
65760;BME280;52496;51.082;5.066;2023-04-20T10:01:16;101601.81;;;9.97;68.47
65760;BME280;52496;51.082;5.066;2023-04-20T10:03:47;101598.28;;;9.88;68.42
65760;BME280;52496;51.082;5.066;2023-04-20T10:06:29;101601.47;;;9.83;69.63
65760;BME280;52496;51.082;5.066;2023-04-20T10:09:01;101608.94;;;9.80;70.18
65760;BME280;52496;51.082;5.066;2023-04-20T10:11:34;101594.88;;;9.70;70.05
65760;BME280;52496;51.082;5.066;2023-04-20T10:14:17;101598.25;;;9.80;70.15
65760;BME280;52496;51.082;5.066;2023-04-20T10:17:04;101595.31;;;9.99;71.11
65760;BME280;52496;51.082;5.066;2023-04-20T10:19:44;101587.34;;;10.16;69.46
65760;BME280;52496;51.082;5.066;2023-04-20T10:22:25;101584.03;;;10.22;69.75
65760;BME280;52496;51.082;5.066;2023-04-20T10:24:59;101574.06;;;10.32;69.82
65760;BME280;52496;51.082;5.066;2023-04-20T10:27:30;101584.47;;;10.60;68.97
65760;BME280;52496;51.082;5.066;2023-04-20T10:30:10;101575.91;;;10.89;69.53
65760;BME280;52496;51.082;5.066;2023-04-20T10:32:41;101576.84;;;11.29;66.16
65760;BME280;52496;51.082;5.066;2023-04-20T10:35:12;101563.94;;;11.40;65.50
65760;BME280;52496;51.082;5.066;2023-04-20T10:37:51;101573.59;;;11.58;64.07
65760;BME280;52496;51.082;5.066;2023-04-20T10:40:25;101564.84;;;11.64;64.00
65760;BME280;52496;51.082;5.066;2023-04-20T10:42:58;101566.97;;;11.85;64.30
65760;BME280;52496;51.082;5.066;2023-04-20T10:45:35;101567.00;;;12.08;63.51
65760;BME280;52496;51.082;5.066;2023-04-20T10:48:09;101560.78;;;12.15;62.73
65760;BME280;52496;51.082;5.066;2023-04-20T10:50:40;101557.06;;;12.16;60.84
65760;BME280;52496;51.082;5.066;2023-04-20T10:53:21;101563.03;;;12.04;61.39
65760;BME280;52496;51.082;5.066;2023-04-20T10:55:59;101558.03;;;11.92;61.08
65760;BME280;52496;51.082;5.066;2023-04-20T10:58:29;101553.91;;;11.82;61.98
65760;BME280;52496;51.082;5.066;2023-04-20T11:01:01;101555.91;;;11.80;62.43
65760;BME280;52496;51.082;5.066;2023-04-20T11:03:32;101551.72;;;11.77;62.43
65760;BME280;52496;51.082;5.066;2023-04-20T11:06:03;101552.44;;;11.71;61.94
65760;BME280;52496;51.082;5.066;2023-04-20T11:08:37;101542.72;;;11.70;61.82
65760;BME280;52496;51.082;5.066;2023-04-20T11:11:19;101540.91;;;11.62;62.03
65760;BME280;52496;51.082;5.066;2023-04-20T11:13:50;101534.72;;;11.62;62.43
65760;BME280;52496;51.082;5.066;2023-04-20T11:16:20;101533.72;;;11.63;62.24
65760;BME280;52496;51.082;5.066;2023-04-20T11:18:53;101529.34;;;11.70;62.70
65760;BME280;52496;51.082;5.066;2023-04-20T11:21:37;101521.91;;;11.80;61.25
65760;BME280;52496;51.082;5.066;2023-04-20T11:24:18;101516.97;;;11.69;60.92
65760;BME280;52496;51.082;5.066;2023-04-20T11:26:51;101524.47;;;11.65;60.94
65760;BME280;52496;51.082;5.066;2023-04-20T11:29:30;101517.94;;;11.68;61.17
65760;BME280;52496;51.082;5.066;2023-04-20T11:32:07;101510.09;;;11.66;61.29
65760;BME280;52496;51.082;5.066;2023-04-20T11:34:38;101509.81;;;11.53;61.86
65760;BME280;52496;51.082;5.066;2023-04-20T11:37:10;101502.31;;;11.48;62.36
65760;BME280;52496;51.082;5.066;2023-04-20T11:39:42;101503.81;;;11.51;62.85
65760;BME280;52496;51.082;5.066;2023-04-20T11:42:13;101497.13;;;11.47;62.38
65760;BME280;52496;51.082;5.066;2023-04-20T11:44:43;101503.28;;;11.56;62.71
65760;BME280;52496;51.082;5.066;2023-04-20T11:47:14;101501.25;;;11.58;61.72
65760;BME280;52496;51.082;5.066;2023-04-20T11:49:44;101498.72;;;11.64;61.11
65760;BME280;52496;51.082;5.066;2023-04-20T11:52:15;101496.34;;;11.69;60.75
65760;BME280;52496;51.082;5.066;2023-04-20T11:54:45;101496.38;;;11.61;60.34
65760;BME280;52496;51.082;5.066;2023-04-20T11:57:16;101490.78;;;11.40;61.13
65760;BME280;52496;51.082;5.066;2023-04-20T11:59:46;101490.03;;;11.23;62.48
65760;BME280;52496;51.082;5.066;2023-04-20T12:02:18;101500.63;;;11.08;63.28
65760;BME280;52496;51.082;5.066;2023-04-20T12:04:48;101489.94;;;10.92;64.10
65760;BME280;52496;51.082;5.066;2023-04-20T12:07:20;101497.47;;;10.80;64.98
65760;BME280;52496;51.082;5.066;2023-04-20T12:09:51;101491.50;;;10.70;65.90
65760;BME280;52496;51.082;5.066;2023-04-20T12:12:21;101494.16;;;10.62;67.04
65760;BME280;52496;51.082;5.066;2023-04-20T12:14:52;101498.53;;;10.54;67.73
65760;BME280;52496;51.082;5.066;2023-04-20T12:17:23;101508.22;;;10.55;69.67
65760;BME280;52496;51.082;5.066;2023-04-20T12:19:53;101502.56;;;10.50;70.79
65760;BME280;52496;51.082;5.066;2023-04-20T12:22:24;101504.88;;;10.45;73.13
65760;BME280;52496;51.082;5.066;2023-04-20T12:24:55;101511.56;;;10.41;74.69
65760;BME280;52496;51.082;5.066;2023-04-20T12:27:25;101500.81;;;10.25;78.81
65760;BME280;52496;51.082;5.066;2023-04-20T12:29:56;101506.19;;;10.17;79.92
65760;BME280;52496;51.082;5.066;2023-04-20T12:32:27;101517.81;;;9.91;82.86
65760;BME280;52496;51.082;5.066;2023-04-20T12:34:58;101514.38;;;9.56;84.82
65760;BME280;52496;51.082;5.066;2023-04-20T12:37:28;101516.44;;;9.36;89.38
65760;BME280;52496;51.082;5.066;2023-04-20T12:39:59;101528.59;;;9.31;90.77
65760;BME280;52496;51.082;5.066;2023-04-20T12:42:29;101507.63;;;9.36;92.41
65760;BME280;52496;51.082;5.066;2023-04-20T12:45:01;101510.00;;;9.47;92.51
65760;BME280;52496;51.082;5.066;2023-04-20T12:47:31;101502.00;;;9.55;90.17
65760;BME280;52496;51.082;5.066;2023-04-20T12:50:02;101501.19;;;9.55;86.22
65760;BME280;52496;51.082;5.066;2023-04-20T12:52:33;101492.84;;;9.50;86.51
65760;BME280;52496;51.082;5.066;2023-04-20T12:55:04;101495.00;;;9.54;90.47
65760;BME280;52496;51.082;5.066;2023-04-20T12:57:36;101488.03;;;9.70;92.35
65760;BME280;52496;51.082;5.066;2023-04-20T13:00:08;101497.13;;;10.09;92.44
65760;BME280;52496;51.082;5.066;2023-04-20T13:02:39;101489.50;;;10.39;84.62
65760;BME280;52496;51.082;5.066;2023-04-20T13:05:10;101488.47;;;10.73;85.47
65760;BME280;52496;51.082;5.066;2023-04-20T13:07:41;101479.00;;;11.18;84.34
65760;BME280;52496;51.082;5.066;2023-04-20T13:10:11;101488.47;;;11.29;81.58
65760;BME280;52496;51.082;5.066;2023-04-20T13:12:42;101482.34;;;11.20;78.82
65760;BME280;52496;51.082;5.066;2023-04-20T13:15:12;101484.84;;;11.21;81.54
65760;BME280;52496;51.082;5.066;2023-04-20T13:17:43;101480.09;;;11.32;80.05
65760;BME280;52496;51.082;5.066;2023-04-20T13:20:13;101482.75;;;11.40;80.02
65760;BME280;52496;51.082;5.066;2023-04-20T13:22:44;101482.84;;;11.55;83.02
65760;BME280;52496;51.082;5.066;2023-04-20T13:25:15;101481.13;;;11.62;80.20
65760;BME280;52496;51.082;5.066;2023-04-20T13:27:45;101501.97;;;11.52;81.40